Liangping, China
Current Conditions -  °F | °C
As of 9:00 AM on Monday 24 Nov 2014 (Local Time) from ZUCK Reporting Station
Light Rain Light Rain  
Wind Chill: 54°   Ceiling: 3300
Heat Index: 54°   Visibility: 0.87mi
Dew Point: 52°   Wind: 2mph
Humidity: 94%   Direction: NA
Pressure: 30.09"   Gusts: NA
Location:  30.68°N, 107.8°E
Report Text: ZUCK 240100Z VRB01MPS 1400 R20R/1200D R20L/1000U -RA BRSCT002SCT008OVC033 12/11 Q1019 BECMG TL0220 1600
Loading
Personal Weather Stations






























Interactive Weather Map New forecast layout! Learn more

10-Day Weather Forecast

Advertisements
Track Severe Weather on mobile